Time;durP1;ratioP1;P1;durP2;ratioP2;P2;SDS_P1;SDS_P2;PMS_P1;PMS_P2;Temp;Humidity;BMP_temperature;BMP_pressure;BME280_temperature;BME280_humidity;BME280_pressure;Samples;Min_cycle;Max_cycle;Signal;HPM_P1;HPM_P2
2022/09/14 00:00:31;;;;;;;6.97;2.50;;;12.50;99.90;;;;;;5075617;28;20076;-62
2022/09/14 00:02:57;;;;;;;6.57;2.38;;;12.60;99.90;;;;;;5074934;28;20083;-62
2022/09/14 00:05:26;;;;;;;6.35;2.38;;;12.60;99.90;;;;;;5075804;28;20047;-62
2022/09/14 00:07:51;;;;;;;7.72;2.20;;;12.60;99.90;;;;;;5075865;28;20127;-62
2022/09/14 00:10:22;;;;;;;7.88;2.40;;;12.70;99.90;;;;;;5075737;28;20041;-63
2022/09/14 00:12:48;;;;;;;12.45;2.47;;;;;;;;;;5075797;28;20476;-62
2022/09/14 00:15:14;;;;;;;10.43;2.28;;;;;;;;;;5075172;28;20052;-62
2022/09/14 00:17:40;;;;;;;7.28;2.53;;;;;;;;;;5075822;28;20065;-62
2022/09/14 00:20:06;;;;;;;9.52;2.70;;;12.60;99.90;;;;;;5075722;28;20047;-62
2022/09/14 00:22:32;;;;;;;7.82;2.30;;;11.90;99.90;;;;;;5075384;28;20079;-62
2022/09/14 00:25:01;;;;;;;13.32;2.63;;;12.60;99.90;;;;;;5075784;28;20143;-62
2022/09/14 00:27:27;;;;;;;10.30;2.70;;;12.40;99.90;;;;;;5074273;28;20141;-62
2022/09/14 00:29:53;;;;;;;6.13;2.50;;;;;;;;;;5075185;28;20532;-62
2022/09/14 00:32:19;;;;;;;9.75;2.60;;;12.70;99.90;;;;;;5075447;28;20044;-62
2022/09/14 00:34:45;;;;;;;10.77;2.85;;;;;;;;;;5075262;28;20045;-63
2022/09/14 00:37:11;;;;;;;5.15;2.50;;;11.90;99.90;;;;;;5075346;28;20077;-62
2022/09/14 00:39:37;;;;;;;7.63;2.78;;;12.70;99.90;;;;;;5075475;28;20085;-62
2022/09/14 00:42:04;;;;;;;9.82;2.70;;;12.60;99.90;;;;;;5073986;28;20040;-62
2022/09/14 00:44:33;;;;;;;6.90;2.75;;;12.80;99.90;;;;;;5075316;28;20036;-62
2022/09/14 00:47:01;;;;;;;11.18;2.85;;;12.70;99.90;;;;;;5075335;28;20036;-62
2022/09/14 00:49:39;;;;;;;9.45;3.00;;;12.70;99.90;;;;;;5075339;28;20036;-62
2022/09/14 00:52:19;;;;;;;8.52;2.90;;;12.70;99.90;;;;;;5075321;28;20036;-62
2022/09/14 00:54:48;;;;;;;5.85;2.60;;;12.60;99.90;;;;;;5074915;28;20044;-62
2022/09/14 00:57:16;;;;;;;3.35;2.30;;;11.80;99.90;;;;;;5074705;28;20028;-62
2022/09/14 00:59:48;;;;;;;5.03;2.42;;;12.60;99.90;;;;;;5074755;28;20111;-62
2022/09/14 01:02:20;;;;;;;6.55;3.03;;;12.70;99.90;;;;;;5075160;28;20075;-62
2022/09/14 01:04:46;;;;;;;3.65;2.60;;;;;;;;;;5075184;28;20089;-62
2022/09/14 01:07:18;;;;;;;7.30;2.50;;;12.60;99.90;;;;;;5073641;28;20043;-61
2022/09/14 01:10:17;;;;;;;4.55;2.30;;;12.50;99.90;;;;;;5074841;28;20044;-62
2022/09/14 01:12:55;;;;;;;4.90;2.38;;;13.00;99.90;;;;;;5075082;28;20085;-62
2022/09/14 01:16:11;;;;;;;10.13;2.63;;;13.20;99.90;;;;;;5074831;28;20048;-62
2022/09/14 01:18:43;;;;;;;6.75;2.65;;;12.40;99.90;;;;;;5073327;28;20056;-62
2022/09/14 01:21:19;;;;;;;8.57;2.92;;;12.50;99.90;;;;;;5074708;28;20036;-62
2022/09/14 01:23:58;;;;;;;7.43;3.20;;;12.40;99.90;;;;;;5074591;28;20037;-62
2022/09/14 01:26:54;;;;;;;5.70;3.00;;;11.80;99.90;;;;;;5074395;28;20044;-62
2022/09/14 01:29:26;;;;;;;13.98;3.08;;;12.20;99.90;;;;;;5074729;28;20040;-62
2022/09/14 01:31:58;;;;;;;3.60;2.47;;;12.10;99.90;;;;;;5074565;28;20054;-62
2022/09/14 01:34:39;;;;;;;6.68;3.00;;;13.30;99.90;;;;;;5074325;28;20036;-62
2022/09/14 01:37:20;;;;;;;6.70;2.70;;;12.40;99.90;;;;;;5074421;28;20075;-62
2022/09/14 01:40:13;;;;;;;6.78;2.80;;;12.40;99.90;;;;;;5073651;28;20052;-62
2022/09/14 01:42:45;;;;;;;11.23;3.17;;;12.20;99.90;;;;;;5070501;28;20044;-62
2022/09/14 01:45:17;;;;;;;12.77;3.03;;;12.10;99.90;;;;;;5074079;28;20040;-62
2022/09/14 01:47:49;;;;;;;10.43;2.90;;;12.10;99.90;;;;;;5074203;28;20036;-62
2022/09/14 01:50:35;;;;;;;7.10;2.80;;;12.30;99.90;;;;;;5072759;28;20044;-62
2022/09/14 01:53:37;;;;;;;7.78;2.75;;;12.00;99.90;;;;;;5074221;28;20119;-62
2022/09/14 01:56:30;;;;;;;7.68;2.60;;;12.10;99.90;;;;;;5073624;28;20041;-62
2022/09/14 01:59:09;;;;;;;5.30;2.47;;;13.60;99.90;;;;;;5072515;28;20036;-62
2022/09/14 02:02:00;;;;;;;10.27;3.47;;;12.00;99.90;;;;;;5073864;28;20036;-61
2022/09/14 02:04:36;;;;;;;7.10;2.53;;;11.50;99.90;;;;;;5073704;28;20072;-62
2022/09/14 02:07:02;;;;;;;5.90;2.78;;;12.00;99.90;;;;;;5073844;28;20040;-62
2022/09/14 02:09:28;;;;;;;7.75;2.90;;;11.80;99.90;;;;;;5073330;28;20053;-62
2022/09/14 02:11:59;;;;;;;8.82;2.80;;;11.90;99.90;;;;;;5073860;28;20115;-62
2022/09/14 02:14:25;;;;;;;7.72;3.05;;;12.20;99.90;;;;;;5073721;28;20044;-63
2022/09/14 02:16:51;;;;;;;6.05;2.60;;;12.00;99.90;;;;;;5073332;28;20070;-62
2022/09/14 02:19:17;;;;;;;6.20;2.80;;;;;;;;;;5072205;28;20123;-62
2022/09/14 02:21:43;;;;;;;7.32;3.22;;;12.00;99.90;;;;;;5073544;28;20439;-62
2022/09/14 02:24:10;;;;;;;5.03;3.13;;;12.00;99.90;;;;;;5073415;28;20107;-62
2022/09/14 02:26:37;;;;;;;8.48;3.67;;;12.00;99.90;;;;;;5073549;28;20040;-62
2022/09/14 02:29:04;;;;;;;7.90;3.55;;;11.20;99.90;;;;;;5073225;28;20123;-62
2022/09/14 02:31:41;;;;;;;5.30;3.20;;;11.40;99.90;;;;;;5073422;28;20070;-62
2022/09/14 02:34:44;;;;;;;8.07;3.33;;;12.00;99.90;;;;;;5073512;28;20045;-62
2022/09/14 02:37:11;;;;;;;6.28;3.42;;;12.10;99.90;;;;;;5073507;28;20044;-62
2022/09/14 02:40:01;;;;;;;9.50;3.05;;;11.90;99.90;;;;;;5073584;28;20091;-62
2022/09/14 02:42:45;;;;;;;5.68;3.10;;;11.60;99.90;;;;;;5069046;28;20094;-62
2022/09/14 02:45:46;;;;;;;7.55;3.10;;;12.00;99.90;;;;;;5073231;28;20064;-62
2022/09/14 02:48:51;;;;;;;6.40;3.20;;;11.40;99.90;;;;;;5050873;28;20102;-62
2022/09/14 02:51:31;;;;;;;7.68;3.47;;;11.00;99.90;;;;;;5050875;28;20048;-62
2022/09/14 02:54:21;;;;;;;5.35;3.33;;;11.00;99.90;;;;;;5050850;28;20056;-62
2022/09/14 02:56:47;;;;;;;6.88;3.20;;;12.00;99.90;;;;;;5050745;28;20516;-63
2022/09/14 02:59:13;;;;;;;4.85;3.28;;;12.10;99.90;;;;;;5050743;28;20537;-62
2022/09/14 03:01:40;;;;;;;5.85;3.25;;;12.00;99.90;;;;;;5017805;28;20060;-62
2022/09/14 03:04:09;;;;;;;6.65;3.38;;;11.60;99.90;;;;;;5050803;28;20083;-63
2022/09/14 03:06:38;;;;;;;8.95;3.30;;;12.00;99.90;;;;;;5050593;28;20094;-62
2022/09/14 03:09:04;;;;;;;6.15;3.50;;;;;;;;;;5050610;28;20057;-63
2022/09/14 03:11:30;;;;;;;6.20;3.30;;;12.20;99.90;;;;;;5050695;28;20168;-61
2022/09/14 03:13:56;;;;;;;6.13;3.53;;;;;;;;;;5050732;28;20124;-62
2022/09/14 03:16:23;;;;;;;7.25;3.92;;;11.50;99.90;;;;;;5050641;28;20052;-61
2022/09/14 03:18:49;;;;;;;8.23;4.20;;;12.10;99.90;;;;;;5050554;28;20052;-62
2022/09/14 03:21:16;;;;;;;7.30;4.10;;;12.10;99.90;;;;;;5050475;28;20037;-62
2022/09/14 03:23:47;;;;;;;7.03;4.10;;;11.70;99.90;;;;;;5053588;28;20055;-62
2022/09/14 03:26:20;;;;;;;7.57;3.80;;;12.20;99.90;;;;;;5073054;28;20115;-61
2022/09/14 03:28:53;;;;;;;10.35;4.80;;;12.10;99.90;;;;;;5072862;28;20345;-62
2022/09/14 03:31:20;;;;;;;10.30;4.97;;;11.70;99.90;;;;;;5073251;28;20135;-62
2022/09/14 03:33:56;;;;;;;8.35;4.53;;;12.10;99.90;;;;;;5073045;28;20071;-62
2022/09/14 03:36:24;;;;;;;8.10;4.60;;;12.00;99.90;;;;;;5072751;28;20037;-62
2022/09/14 03:38:52;;;;;;;8.40;4.30;;;11.70;99.90;;;;;;5072495;28;20129;-62
2022/09/14 03:41:18;;;;;;;8.30;4.70;;;12.00;99.90;;;;;;5073134;28;20041;-62
2022/09/14 03:43:46;;;;;;;9.05;4.40;;;12.30;99.90;;;;;;5072546;28;20037;-62
2022/09/14 03:46:23;;;;;;;10.90;4.20;;;11.70;99.90;;;;;;5072465;28;20037;-58
2022/09/14 03:48:49;;;;;;;9.18;3.95;;;12.20;99.90;;;;;;5072513;28;20107;-57
2022/09/14 03:51:15;;;;;;;6.18;3.40;;;12.10;99.90;;;;;;5072507;28;20083;-57
2022/09/14 03:53:44;;;;;;;8.18;3.80;;;11.80;99.90;;;;;;5072801;28;20090;-57
2022/09/14 03:56:16;;;;;;;8.50;3.50;;;12.20;99.90;;;;;;5072571;28;20369;-57
2022/09/14 03:58:43;;;;;;;6.93;3.45;;;12.20;99.90;;;;;;5071288;28;20040;-57
2022/09/14 04:01:13;;;;;;;8.45;4.10;;;12.20;99.90;;;;;;5072429;28;20066;-57
2022/09/14 04:03:39;;;;;;;6.90;3.55;;;12.20;99.90;;;;;;5072693;28;20040;-57
2022/09/14 04:06:06;;;;;;;6.45;3.58;;;12.20;99.90;;;;;;5074658;28;20063;-57
2022/09/14 04:08:34;;;;;;;5.90;3.75;;;11.70;99.90;;;;;;5074420;28;20512;-57
2022/09/14 04:11:06;;;;;;;7.15;3.70;;;12.20;99.90;;;;;;5075922;28;20385;-57
2022/09/14 04:13:32;;;;;;;6.63;3.60;;;12.30;99.90;;;;;;5075716;28;20405;-62
2022/09/14 04:15:59;;;;;;;7.43;3.80;;;12.50;99.90;;;;;;5075972;28;20048;-62
2022/09/14 04:18:26;;;;;;;9.63;4.22;;;11.40;99.90;;;;;;5075723;28;20445;-62
2022/09/14 04:20:56;;;;;;;4.43;3.58;;;12.20;99.90;;;;;;5075615;28;20488;-62
2022/09/14 04:23:22;;;;;;;7.10;3.95;;;;;;;;;;5075771;28;20103;-62
2022/09/14 04:25:48;;;;;;;8.82;4.20;;;12.20;99.90;;;;;;5075488;28;20098;-62
2022/09/14 04:28:15;;;;;;;10.30;4.30;;;11.90;99.90;;;;;;5075733;28;20084;-62
2022/09/14 04:30:42;;;;;;;8.48;4.32;;;11.90;99.90;;;;;;5075020;28;20084;-62
2022/09/14 04:33:07;;;;;;;7.50;4.20;;;12.50;99.90;;;;;;5075372;28;20471;-62
2022/09/14 04:35:36;;;;;;;10.55;4.93;;;12.40;99.90;;;;;;5075395;28;20036;-62
2022/09/14 04:38:03;;;;;;;8.20;4.53;;;12.40;99.90;;;;;;5075301;28;20463;-57
2022/09/14 04:40:29;;;;;;;6.00;4.20;;;12.30;99.90;;;;;;5075157;28;20037;-57
2022/09/14 04:42:54;;;;;;;7.82;4.57;;;12.50;99.90;;;;;;5075268;28;20036;-57
2022/09/14 04:45:20;;;;;;;9.70;4.43;;;12.40;99.90;;;;;;5075233;28;20098;-57
2022/09/14 04:47:46;;;;;;;6.68;4.43;;;12.40;99.90;;;;;;5074781;28;20045;-57
2022/09/14 04:50:12;;;;;;;11.68;4.78;;;;;;;;;;5075100;28;20036;-57
2022/09/14 04:52:38;;;;;;;8.85;4.13;;;12.20;99.90;;;;;;5075362;28;20036;-57
2022/09/14 04:55:06;;;;;;;7.97;3.92;;;12.50;99.90;;;;;;5053220;28;20049;-57
2022/09/14 04:57:32;;;;;;;6.15;4.30;;;12.70;99.90;;;;;;5071631;28;20044;-57
2022/09/14 04:59:58;;;;;;;11.50;4.40;;;;;;;;;;5073584;28;20044;-57
2022/09/14 05:02:29;;;;;;;8.45;4.57;;;12.50;99.90;;;;;;5074102;28;20043;-57
2022/09/14 05:04:57;;;;;;;7.97;4.18;;;12.70;99.90;;;;;;5073782;28;20108;-57
2022/09/14 05:07:23;;;;;;;8.70;4.40;;;12.60;99.90;;;;;;5073498;28;20107;-57
2022/09/14 05:09:49;;;;;;;8.90;4.03;;;13.00;99.90;;;;;;5073816;28;20124;-57
2022/09/14 05:12:16;;;;;;;9.05;4.20;;;12.20;99.90;;;;;;5073233;28;20507;-57
2022/09/14 05:14:42;;;;;;;8.75;4.35;;;;;;;;;;5073783;28;20064;-57
2022/09/14 05:17:08;;;;;;;6.15;4.13;;;12.70;99.90;;;;;;5072436;28;20051;-57
2022/09/14 05:19:33;;;;;;;10.20;4.28;;;12.80;99.90;;;;;;5074460;28;20032;-58
2022/09/14 05:21:59;;;;;;;8.35;3.95;;;;;;;;;;5073423;28;20036;-57
2022/09/14 05:24:27;;;;;;;6.68;3.92;;;12.80;99.90;;;;;;5073963;28;20040;-62
2022/09/14 05:26:53;;;;;;;12.02;4.40;;;12.70;99.90;;;;;;5073985;28;20051;-62
2022/09/14 05:29:19;;;;;;;12.50;4.20;;;;;;;;;;5074476;28;20040;-63
2022/09/14 05:31:47;;;;;;;9.77;4.78;;;12.70;99.90;;;;;;5074400;28;20098;-69
2022/09/14 05:34:12;;;;;;;11.77;4.85;;;12.90;99.90;;;;;;5074285;28;20040;-63
2022/09/14 05:36:39;;;;;;;6.28;4.40;;;12.80;99.90;;;;;;5073932;28;20043;-63
2022/09/14 05:39:05;;;;;;;9.48;4.32;;;12.90;99.90;;;;;;5074357;28;20036;-63
2022/09/14 05:41:33;;;;;;;7.03;4.25;;;;;;;;;;5074250;28;20064;-63
2022/09/14 05:43:59;;;;;;;8.40;4.32;;;12.90;99.90;;;;;;5073181;28;20049;-63
2022/09/14 05:46:26;;;;;;;7.88;4.18;;;;;;;;;;5074055;28;20044;-63
2022/09/14 05:48:52;;;;;;;9.23;4.30;;;13.10;99.90;;;;;;5073972;28;20044;-63
2022/09/14 05:51:21;;;;;;;6.72;4.32;;;12.90;99.90;;;;;;5073921;28;20157;-63
2022/09/14 05:53:53;;;;;;;8.00;4.40;;;12.80;99.90;;;;;;5073897;28;20532;-63
2022/09/14 05:56:23;;;;;;;6.80;4.20;;;13.10;99.90;;;;;;5072828;28;20390;-63
2022/09/14 05:58:50;;;;;;;8.52;4.40;;;12.90;99.90;;;;;;5073588;28;20041;-63
2022/09/14 06:01:26;;;;;;;7.13;4.05;;;13.10;99.90;;;;;;5073779;28;20047;-63
2022/09/14 06:03:52;;;;;;;;;;;13.20;99.90;;;;;;5074207;28;20060;-63
2022/09/14 06:06:18;;;;;;;;;;;13.20;99.90;;;;;;5074326;28;19924;-62
2022/09/14 06:08:46;;;;;;;9.90;4.47;;;13.20;99.90;;;;;;5073457;28;20002;-62
2022/09/14 06:11:17;;;;;;;9.27;4.38;;;13.00;99.90;;;;;;5073192;28;20048;-62
2022/09/14 06:13:45;;;;;;;16.85;4.47;;;13.20;99.90;;;;;;5073614;28;20082;-62
2022/09/14 06:16:19;;;;;;;8.95;4.25;;;13.40;99.90;;;;;;5073243;28;20476;-62
2022/09/14 06:18:45;;;;;;;8.00;4.10;;;13.10;99.90;;;;;;5072405;28;20059;-62
2022/09/14 06:21:16;;;;;;;10.15;4.47;;;13.60;99.90;;;;;;5072281;28;20043;-62
2022/09/14 06:23:46;;;;;;;8.48;4.22;;;13.00;99.90;;;;;;5073385;28;20033;-62
2022/09/14 06:26:15;;;;;;;10.45;4.57;;;13.00;99.90;;;;;;5073219;28;20048;-62
2022/09/14 06:28:46;;;;;;;10.88;4.63;;;13.60;99.90;;;;;;5072883;28;20076;-62
2022/09/14 06:31:16;;;;;;;8.75;4.30;;;13.70;99.90;;;;;;5072805;28;20048;-62
2022/09/14 06:33:47;;;;;;;10.40;4.40;;;13.50;99.90;;;;;;5073439;28;20086;-62
2022/09/14 06:36:26;;;;;;;12.77;4.43;;;13.80;99.90;;;;;;5071068;28;20439;-62
2022/09/14 06:38:53;;;;;;;13.52;4.07;;;13.50;99.90;;;;;;5073273;28;20040;-62
2022/09/14 06:41:21;;;;;;;7.53;4.05;;;13.70;99.90;;;;;;5073017;28;20125;-62
2022/09/14 06:43:48;;;;;;;9.60;3.80;;;13.50;99.90;;;;;;5073031;28;20500;-62
2022/09/14 06:46:18;;;;;;;11.20;4.50;;;14.00;99.90;;;;;;5073206;28;20080;-62
2022/09/14 06:48:49;;;;;;;21.17;4.70;;;13.70;99.90;;;;;;5073174;28;20043;-62
2022/09/14 06:51:29;;;;;;;9.77;4.47;;;14.00;99.90;;;;;;5072998;28;20040;-62
2022/09/14 06:53:59;;;;;;;9.13;3.90;;;14.00;99.90;;;;;;5073217;28;20044;-62
2022/09/14 06:56:36;;;;;;;15.23;4.18;;;13.40;99.90;;;;;;5072917;28;20128;-63
2022/09/14 06:59:04;;;;;;;5.40;3.85;;;14.30;99.90;;;;;;5072545;28;20396;-62
2022/09/14 07:01:30;;;;;;;13.98;4.90;;;;;;;;;;5073036;28;20028;-62
2022/09/14 07:03:57;;;;;;;9.38;4.10;;;14.10;99.90;;;;;;5073125;28;20098;-62
2022/09/14 07:06:30;;;;;;;10.32;4.47;;;14.40;99.90;;;;;;5072789;28;20055;-63
2022/09/14 07:08:56;;;;;;;8.50;4.50;;;14.60;99.90;;;;;;5073435;28;20062;-62
2022/09/14 07:11:28;;;;;;;11.10;4.47;;;14.60;99.90;;;;;;5072999;28;20048;-62
2022/09/14 07:13:57;;;;;;;13.23;4.97;;;14.60;99.90;;;;;;5072976;28;20075;-62
2022/09/14 07:16:24;;;;;;;10.02;4.30;;;14.60;99.90;;;;;;5073014;28;20387;-62
2022/09/14 07:18:57;;;;;;;10.70;4.53;;;13.90;99.90;;;;;;5072690;28;20036;-62
2022/09/14 07:21:25;;;;;;;16.67;4.80;;;15.00;99.90;;;;;;5071686;28;20041;-63
2022/09/14 07:23:51;;;;;;;8.50;4.20;;;15.10;99.90;;;;;;5072900;28;20117;-63
2022/09/14 07:26:27;;;;;;;9.43;4.50;;;15.00;99.90;;;;;;5072689;28;20044;-62
2022/09/14 07:28:58;;;;;;;9.18;4.68;;;14.10;99.90;;;;;;5072735;28;20377;-63
2022/09/14 07:31:36;;;;;;;8.55;4.03;;;15.10;99.90;;;;;;5072600;28;20049;-63
2022/09/14 07:34:04;;;;;;;6.63;4.22;;;15.20;99.90;;;;;;5072780;28;20057;-63
2022/09/14 07:36:35;;;;;;;12.77;4.10;;;15.30;99.90;;;;;;5072618;28;20499;-63
2022/09/14 07:39:04;;;;;;;8.85;3.80;;;15.60;99.90;;;;;;5071769;28;20141;-63
2022/09/14 07:41:32;;;;;;;9.07;3.55;;;17.50;99.90;;;;;;5075636;28;20369;-63
2022/09/14 07:44:01;;;;;;;13.05;3.70;;;15.90;99.90;;;;;;5076420;28;20043;-63
2022/09/14 07:46:28;;;;;;;8.95;3.40;;;16.60;99.90;;;;;;5076549;28;20051;-57
2022/09/14 07:48:59;;;;;;;10.23;3.45;;;16.20;99.90;;;;;;5076286;28;20033;-58
2022/09/14 07:51:25;;;;;;;8.98;3.08;;;17.00;99.90;;;;;;5076443;28;20040;-58
2022/09/14 07:53:52;;;;;;;22.58;3.83;;;15.80;99.90;;;;;;5076264;28;20047;-58
2022/09/14 07:56:18;;;;;;;22.15;3.60;;;16.70;99.90;;;;;;5074587;28;20056;-58
2022/09/14 07:58:44;;;;;;;14.68;3.10;;;17.10;99.90;;;;;;5076119;28;20035;-58
2022/09/14 08:01:12;;;;;;;7.28;2.92;;;16.80;99.90;;;;;;5076037;28;20028;-57
2022/09/14 08:03:42;;;;;;;9.98;2.80;;;17.10;99.90;;;;;;5076184;28;20434;-58
2022/09/14 08:06:12;;;;;;;9.98;2.80;;;17.10;99.90;;;;;;5076286;28;20098;-57
2022/09/14 08:08:40;;;;;;;11.10;2.60;;;17.20;99.90;;;;;;5075849;28;20092;-58
2022/09/14 08:11:19;;;;;;;41.15;3.40;;;17.50;99.90;;;;;;5076150;28;20099;-63
2022/09/14 08:13:50;;;;;;;14.52;2.75;;;17.40;99.90;;;;;;5075810;28;20049;-64
2022/09/14 08:16:18;;;;;;;7.68;2.08;;;18.10;99.90;;;;;;5076261;28;20044;-63
2022/09/14 08:18:45;;;;;;;5.05;1.90;;;18.20;99.90;;;;;;5075752;28;20036;-64
2022/09/14 08:21:13;;;;;;;6.68;2.00;;;18.80;99.90;;;;;;5074255;28;20124;-63
2022/09/14 08:23:40;;;;;;;5.82;1.70;;;19.00;99.90;;;;;;5076014;28;20333;-63
2022/09/14 08:26:11;;;;;;;6.15;1.75;;;18.80;99.90;;;;;;5075710;28;20046;-63
2022/09/14 08:28:37;;;;;;;7.70;1.98;;;18.40;99.90;;;;;;5075557;28;20054;-63
2022/09/14 08:31:04;;;;;;;6.63;2.00;;;18.70;99.90;;;;;;5075534;28;20119;-64
2022/09/14 08:33:35;;;;;;;13.48;2.00;;;18.80;99.90;;;;;;5075358;28;20048;-58
2022/09/14 08:36:02;;;;;;;5.63;1.50;;;18.70;99.90;;;;;;5074069;28;20041;-58
2022/09/14 08:38:31;;;;;;;7.00;1.60;;;19.50;99.90;;;;;;5075579;28;20128;-58
2022/09/14 08:41:04;;;;;;;5.30;1.55;;;19.10;99.90;;;;;;5075574;28;20111;-58
2022/09/14 08:43:33;;;;;;;7.65;1.40;;;19.10;99.90;;;;;;5075262;28;20468;-64
2022/09/14 08:46:06;;;;;;;7.93;1.63;;;19.10;99.90;;;;;;5075470;28;20051;-64
2022/09/14 08:48:40;;;;;;;14.15;1.77;;;18.90;99.90;;;;;;5075608;28;20044;-64
2022/09/14 08:51:06;;;;;;;6.70;1.52;;;18.70;99.90;;;;;;5074043;28;20392;-64
2022/09/14 08:53:37;;;;;;;4.28;1.33;;;19.00;99.90;;;;;;5075287;28;20051;-64
2022/09/14 08:56:10;;;;;;;14.13;2.05;;;18.80;99.90;;;;;;5075237;28;20046;-64
2022/09/14 08:59:18;;;;;;;8.60;1.63;;;19.10;99.90;;;;;;5075189;28;20083;-64
2022/09/14 09:02:22;;;;;;;7.32;1.60;;;18.50;99.90;;;;;;5052775;28;20044;-64
2022/09/14 09:05:16;;;;;;;5.60;1.70;;;18.70;99.90;;;;;;5052772;28;20416;-64
2022/09/14 09:07:47;;;;;;;4.63;1.38;;;19.00;99.90;;;;;;5052652;28;20524;-63
2022/09/14 09:10:14;;;;;;;4.57;1.52;;;19.00;99.90;;;;;;5052687;28;20048;-64
2022/09/14 09:12:53;;;;;;;5.25;1.20;;;19.30;99.90;;;;;;5051412;28;20041;-64
2022/09/14 09:15:21;;;;;;;6.32;1.20;;;19.90;99.90;;;;;;5035929;28;20540;-64
2022/09/14 09:17:53;;;;;;;5.63;1.45;;;19.80;99.90;;;;;;5052482;28;20086;-64
2022/09/14 09:20:35;;;;;;;5.82;1.40;;;20.30;99.90;;;;;;5052447;28;20529;-58
2022/09/14 09:23:12;;;;;;;8.40;1.67;;;20.50;99.90;;;;;;5051574;28;20045;-58
2022/09/14 09:25:56;;;;;;;4.63;1.33;;;20.90;99.90;;;;;;5052414;28;20125;-58
2022/09/14 09:28:24;;;;;;;6.00;1.38;;;20.60;99.90;;;;;;5052304;28;20405;-58
2022/09/14 09:30:53;;;;;;;4.35;1.15;;;19.80;99.90;;;;;;5035729;28;20041;-58
2022/09/14 09:33:24;;;;;;;7.07;1.48;;;21.10;99.90;;;;;;5052211;28;20535;-64
2022/09/14 09:35:52;;;;;;;6.88;1.35;;;20.70;99.90;;;;;;5065310;28;20127;-65
2022/09/14 09:38:23;;;;;;;7.85;1.40;;;20.90;99.90;;;;;;5074357;28;20043;-65
2022/09/14 09:40:53;;;;;;;7.70;1.63;;;20.90;99.90;;;;;;5074429;28;20040;-64
2022/09/14 09:43:20;;;;;;;8.27;1.50;;;20.50;99.90;;;;;;5074106;28;20484;-65
2022/09/14 09:45:59;;;;;;;6.05;1.60;;;21.10;99.90;;;;;;5074079;28;20115;-64
2022/09/14 09:48:40;;;;;;;5.18;1.20;;;20.90;99.90;;;;;;5074328;28;20420;-64
2022/09/14 09:51:25;;;;;;;4.97;1.30;;;20.70;99.90;;;;;;5074285;28;20106;-64
2022/09/14 09:54:00;;;;;;;7.30;1.50;;;20.60;99.90;;;;;;5074084;28;20037;-65
2022/09/14 09:56:30;;;;;;;7.78;1.23;;;20.40;99.90;;;;;;5073849;28;20047;-64
2022/09/14 09:58:57;;;;;;;4.43;1.20;;;20.30;99.90;;;;;;5089713;28;20048;-64
2022/09/14 10:01:27;;;;;;;8.10;1.55;;;20.20;99.90;;;;;;5073631;28;20086;-64
2022/09/14 10:04:00;;;;;;;5.57;1.40;;;20.20;99.90;;;;;;5073246;28;20044;-64
2022/09/14 10:06:28;;;;;;;8.20;2.08;;;20.30;99.90;;;;;;5073948;28;20040;-58
2022/09/14 10:08:58;;;;;;;3.15;1.10;;;20.20;99.90;;;;;;5073511;28;20063;-58
2022/09/14 10:11:37;;;;;;;3.58;1.05;;;20.20;99.90;;;;;;5073698;28;20048;-58
2022/09/14 10:14:05;;;;;;;5.57;1.15;;;20.10;99.90;;;;;;5073509;28;20115;-58
2022/09/14 10:16:39;;;;;;;4.53;1.13;;;20.10;99.90;;;;;;5072905;28;20052;-58
2022/09/14 10:19:14;;;;;;;6.85;1.40;;;20.10;99.90;;;;;;5072365;28;20045;-63
2022/09/14 10:22:03;;;;;;;13.07;1.60;;;20.00;99.90;;;;;;5073246;28;20404;-64
2022/09/14 10:24:30;;;;;;;3.60;1.30;;;19.90;99.90;;;;;;5073583;28;20044;-64
2022/09/14 10:26:56;;;;;;;4.78;1.60;;;20.10;99.90;;;;;;5073599;28;20553;-64
2022/09/14 10:29:36;;;;;;;4.55;1.23;;;20.10;99.90;;;;;;5072052;28;20044;-64
2022/09/14 10:32:24;;;;;;;4.93;1.15;;;20.00;99.90;;;;;;5067222;28;20045;-63
2022/09/14 10:34:50;;;;;;;10.80;1.63;;;19.80;99.90;;;;;;5059634;28;20048;-63
2022/09/14 10:37:34;;;;;;;7.38;1.45;;;20.10;99.90;;;;;;5072344;28;20040;-63
2022/09/14 10:40:19;;;;;;;8.23;1.70;;;19.60;99.90;;;;;;5060651;28;20082;-63
2022/09/14 10:42:57;;;;;;;5.22;1.25;;;20.30;99.90;;;;;;5071789;28;20033;-64
2022/09/14 10:45:39;;;;;;;;;;;20.40;99.90;;;;;;5072773;28;20052;-64
2022/09/14 10:48:30;;;;;;;3.38;1.30;;;20.80;99.90;;;;;;5072345;28;20371;-64
2022/09/14 10:51:29;;;;;;;5.43;1.20;;;20.30;99.90;;;;;;5072196;28;20062;-64
2022/09/14 10:54:00;;;;;;;5.95;1.50;;;20.50;99.90;;;;;;5071880;28;20041;-64
2022/09/14 10:57:06;;;;;;;3.92;1.10;;;20.60;99.90;;;;;;5071054;28;20044;-64
2022/09/14 10:59:56;;;;;;;5.72;1.38;;;20.70;99.90;;;;;;5071588;28;20119;-64
2022/09/14 11:02:41;;;;;;;4.68;1.40;;;20.80;99.90;;;;;;5072463;28;20037;-64
2022/09/14 11:05:45;;;;;;;5.80;1.45;;;21.00;99.90;;;;;;5072116;28;20049;-65
2022/09/14 11:08:22;;;;;;;4.75;1.45;;;21.20;99.90;;;;;;5072065;28;20052;-64
2022/09/14 11:11:13;;;;;;;5.55;1.40;;;21.40;99.90;;;;;;5071937;28;20040;-66
2022/09/14 11:14:27;;;;;;;4.97;1.45;;;21.50;99.90;;;;;;5051602;28;20424;-64
2022/09/14 11:17:17;;;;;;;5.20;1.67;;;21.60;99.90;;;;;;5053772;28;20503;-62
2022/09/14 11:19:59;;;;;;;7.13;1.88;;;21.60;99.90;;;;;;5077182;28;20048;-63
2022/09/14 11:22:45;;;;;;;5.47;1.45;;;20.90;99.90;;;;;;5076533;28;20044;-63
2022/09/14 11:25:29;;;;;;;4.53;1.27;;;21.70;99.90;;;;;;5076943;28;20113;-63
2022/09/14 11:28:26;;;;;;;4.07;1.30;;;21.70;99.90;;;;;;5076864;28;20040;-63
2022/09/14 11:31:10;;;;;;;7.30;1.52;;;21.90;99.90;;;;;;5076030;28;20060;-63
2022/09/14 11:33:54;;;;;;;2.95;1.30;;;22.00;99.90;;;;;;5076359;28;20418;-63
2022/09/14 11:36:37;;;;;;;7.00;1.33;;;22.20;99.90;;;;;;5075878;28;20090;-63
2022/09/14 11:39:16;;;;;;;6.85;1.40;;;21.90;99.90;;;;;;5073520;28;20037;-63
2022/09/14 11:42:09;;;;;;;6.60;1.50;;;22.00;99.90;;;;;;5076677;28;20043;-63
2022/09/14 11:44:41;;;;;;;4.00;1.30;;;22.00;99.90;;;;;;5074636;28;20064;-63
2022/09/14 11:47:18;;;;;;;2.60;1.35;;;21.90;99.90;;;;;;5075853;28;20123;-63
2022/09/14 11:50:15;;;;;;;5.82;1.33;;;21.90;99.90;;;;;;5076186;28;20178;-63
2022/09/14 11:52:41;;;;;;;3.58;1.33;;;21.80;99.90;;;;;;5074383;28;20127;-63
2022/09/14 11:55:16;;;;;;;5.25;1.35;;;21.90;99.90;;;;;;5076176;28;20127;-63
2022/09/14 11:57:47;;;;;;;5.00;1.40;;;21.90;99.90;;;;;;5076214;28;20051;-63
2022/09/14 12:00:26;;;;;;;3.67;1.27;;;22.00;99.90;;;;;;5075135;28;20468;-62
2022/09/14 12:03:18;;;;;;;4.65;1.30;;;22.70;99.90;;;;;;5075726;28;20036;-56
2022/09/14 12:05:45;;;;;;;6.03;1.40;;;22.10;99.90;;;;;;5075503;28;20048;-56
2022/09/14 12:08:27;;;;;;;5.90;1.50;;;22.60;99.90;;;;;;5075357;28;20067;-56
2022/09/14 12:11:16;;;;;;;6.03;1.58;;;21.90;98.00;;;;;;5075748;28;20048;-56
2022/09/14 12:13:41;;;;;;;5.55;1.40;;;22.00;99.90;;;;;;5075860;28;20044;-56
2022/09/14 12:16:08;;;;;;;4.43;1.63;;;21.80;99.90;;;;;;5076013;28;20369;-58
2022/09/14 12:18:39;;;;;;;4.03;1.40;;;21.80;98.20;;;;;;5075284;28;20626;-56
2022/09/14 12:21:24;;;;;;;4.05;1.80;;;21.80;98.00;;;;;;5057795;28;20427;-57
2022/09/14 12:24:13;;;;;;;4.25;1.30;;;21.90;99.90;;;;;;5075793;28;20115;-57
2022/09/14 12:26:39;;;;;;;3.58;1.20;;;22.00;99.90;;;;;;5075081;28;20395;-56
2022/09/14 12:29:27;;;;;;;13.95;1.70;;;22.20;99.90;;;;;;5074410;28;20048;-56
2022/09/14 12:31:57;;;;;;;4.63;1.30;;;22.60;99.90;;;;;;5075511;28;20480;-57
2022/09/14 12:34:31;;;;;;;4.63;1.60;;;22.20;97.10;;;;;;5075792;28;20055;-57
2022/09/14 12:37:03;;;;;;;3.92;1.20;;;22.20;96.80;;;;;;5075487;28;20041;-57
2022/09/14 12:39:34;;;;;;;6.68;1.30;;;22.00;97.10;;;;;;5074027;28;20098;-57
2022/09/14 12:42:04;;;;;;;7.32;1.50;;;22.10;97.40;;;;;;5074604;28;20544;-56
2022/09/14 12:44:34;;;;;;;3.92;1.30;;;22.30;99.90;;;;;;5075230;28;20040;-56
2022/09/14 12:47:29;;;;;;;6.03;1.70;;;22.50;99.90;;;;;;5075259;28;20043;-56
2022/09/14 12:49:59;;;;;;;4.40;1.40;;;22.60;96.40;;;;;;5066165;28;20385;-57
2022/09/14 12:52:51;;;;;;;4.40;1.30;;;22.80;99.90;;;;;;5075490;28;20037;-57
2022/09/14 12:55:41;;;;;;;7.40;1.40;;;22.80;95.80;;;;;;5075000;28;20055;-57
2022/09/14 12:58:29;;;;;;;5.70;1.45;;;23.00;99.90;;;;;;5074667;28;20058;-56
2022/09/14 13:01:27;;;;;;;2.83;1.20;;;23.10;95.60;;;;;;5075169;28;20051;-56
2022/09/14 13:03:57;;;;;;;5.95;1.40;;;23.40;94.90;;;;;;5074962;28;20041;-56
2022/09/14 13:06:39;;;;;;;3.63;1.30;;;23.50;95.40;;;;;;5075193;28;20372;-56
2022/09/14 13:09:16;;;;;;;5.63;1.52;;;23.70;94.90;;;;;;5074628;28;20054;-57
2022/09/14 13:11:45;;;;;;;3.65;1.40;;;24.00;93.90;;;;;;5073529;28;20048;-58
2022/09/14 13:14:18;;;;;;;2.92;1.40;;;24.10;93.30;;;;;;5074725;28;20067;-55
2022/09/14 13:16:48;;;;;;;4.38;1.20;;;24.00;93.20;;;;;;5073017;28;20048;-55
2022/09/14 13:19:32;;;;;;;7.88;1.75;;;24.00;92.80;;;;;;5068881;28;20115;-55
2022/09/14 13:22:01;;;;;;;3.53;1.30;;;23.90;92.00;;;;;;5074121;28;20378;-55